createdAt,value
2022-09-07T00:01:15.814Z,7.70
2022-09-07T00:03:44.290Z,7.70
2022-09-07T00:06:14.580Z,7.70
2022-09-07T00:08:44.428Z,7.80
2022-09-07T00:11:16.345Z,7.80
2022-09-07T00:13:46.385Z,7.80
2022-09-07T00:16:17.212Z,7.70
2022-09-07T00:18:46.744Z,7.50
2022-09-07T00:21:17.121Z,7.40
2022-09-07T00:23:46.671Z,7.30
2022-09-07T00:26:18.856Z,7.40
2022-09-07T00:28:47.520Z,7.40
2022-09-07T00:31:17.737Z,7.40
2022-09-07T00:33:48.290Z,7.40
2022-09-07T00:36:17.258Z,7.40
2022-09-07T00:38:45.869Z,7.50
2022-09-07T00:41:16.665Z,7.50
2022-09-07T00:43:47.128Z,7.50
2022-09-07T00:46:18.178Z,7.40
2022-09-07T00:48:50.745Z,7.30
2022-09-07T00:51:24.682Z,7.30
2022-09-07T00:53:58.202Z,7.30
2022-09-07T00:56:31.824Z,7.20
2022-09-07T00:59:01.175Z,7.10
2022-09-07T01:01:29.925Z,7.00
2022-09-07T01:04:00.393Z,6.90
2022-09-07T01:06:32.216Z,6.90
2022-09-07T01:09:04.670Z,6.80
2022-09-07T01:11:35.499Z,6.80
2022-09-07T01:14:05.700Z,6.80
2022-09-07T01:16:48.513Z,6.90
2022-09-07T01:19:49.345Z,7.00
2022-09-07T01:22:40.584Z,7.00
2022-09-07T01:25:11.905Z,7.00
2022-09-07T01:28:04.575Z,7.00
2022-09-07T01:30:37.490Z,6.90
2022-09-07T01:33:24.370Z,6.80
2022-09-07T01:36:00.770Z,6.80
2022-09-07T01:38:36.930Z,6.70
2022-09-07T01:41:11.289Z,6.70
2022-09-07T01:43:49.785Z,6.70
2022-09-07T01:46:22.197Z,6.50
2022-09-07T01:48:53.562Z,6.50
2022-09-07T01:51:24.320Z,6.50
2022-09-07T01:53:56.703Z,6.60
2022-09-07T01:56:29.894Z,6.60
2022-09-07T01:59:05.164Z,6.60
2022-09-07T02:01:40.348Z,6.50
2022-09-07T02:04:11.972Z,6.50
2022-09-07T02:06:46.665Z,6.40
2022-09-07T02:09:20.170Z,6.40
2022-09-07T02:11:50.827Z,6.30
2022-09-07T02:14:26.694Z,6.20
2022-09-07T02:16:59.633Z,6.20
2022-09-07T02:19:34.541Z,6.20
2022-09-07T02:22:08.111Z,6.20
2022-09-07T02:24:40.892Z,6.10
2022-09-07T02:27:13.296Z,6.20
2022-09-07T02:29:44.650Z,6.20
2022-09-07T02:32:13.301Z,6.10
2022-09-07T02:34:41.699Z,6.00
2022-09-07T02:37:12.276Z,6.00
2022-09-07T02:39:40.809Z,6.00
2022-09-07T02:42:10.419Z,5.90
2022-09-07T02:44:45.601Z,5.90
2022-09-07T02:47:25.738Z,5.90
2022-09-07T02:50:13.490Z,5.90
2022-09-07T02:52:51.671Z,5.80
2022-09-07T02:55:33.867Z,5.70
2022-09-07T02:58:13.646Z,5.70
2022-09-07T03:00:51.938Z,5.70
2022-09-07T03:03:27.307Z,5.70
2022-09-07T03:06:00.561Z,5.60
2022-09-07T03:08:35.701Z,5.60
2022-09-07T03:11:06.651Z,5.60
2022-09-07T03:13:35.239Z,5.60
2022-09-07T03:16:05.363Z,5.60
2022-09-07T03:18:33.871Z,5.60
2022-09-07T03:21:02.304Z,5.60
2022-09-07T03:23:30.649Z,5.50
2022-09-07T03:25:59.037Z,5.50
2022-09-07T03:28:27.481Z,5.50
2022-09-07T03:30:55.975Z,5.50
2022-09-07T03:33:25.888Z,5.60
2022-09-07T03:36:02.428Z,5.60
2022-09-07T03:38:32.032Z,5.60
2022-09-07T03:41:01.973Z,5.60
2022-09-07T03:43:31.160Z,5.50
2022-09-07T03:46:00.948Z,5.40
2022-09-07T03:48:32.352Z,5.40
2022-09-07T03:51:01.666Z,5.30
2022-09-07T03:53:32.080Z,5.20
2022-09-07T03:56:01.843Z,5.20
2022-09-07T03:58:31.975Z,5.10
2022-09-07T04:01:01.511Z,5.10
2022-09-07T04:03:31.419Z,5.10
2022-09-07T04:06:00.229Z,5.00
2022-09-07T04:08:29.293Z,5.00
2022-09-07T04:10:58.379Z,5.00
2022-09-07T04:13:26.972Z,5.00
2022-09-07T04:15:55.747Z,5.10
2022-09-07T04:18:24.988Z,5.10
2022-09-07T04:20:54.783Z,5.10
2022-09-07T04:23:23.121Z,5.10
2022-09-07T04:25:52.691Z,5.00
2022-09-07T04:28:22.100Z,5.10
2022-09-07T04:30:50.526Z,5.10
2022-09-07T04:33:18.916Z,5.20
2022-09-07T04:35:47.241Z,5.20
2022-09-07T04:38:17.784Z,5.30
2022-09-07T04:40:46.105Z,5.30
2022-09-07T04:43:14.362Z,5.20
2022-09-07T04:45:42.858Z,5.30
2022-09-07T04:48:11.150Z,5.30
2022-09-07T04:50:39.529Z,5.50
2022-09-07T04:53:07.988Z,5.50
2022-09-07T04:55:37.726Z,5.60
2022-09-07T04:58:06.217Z,5.70
2022-09-07T05:00:34.560Z,5.70
2022-09-07T05:03:02.814Z,5.80
2022-09-07T05:05:31.116Z,5.80
2022-09-07T05:07:59.595Z,5.80
2022-09-07T05:10:27.975Z,5.90
2022-09-07T05:12:58.280Z,6.10
2022-09-07T05:15:26.620Z,6.20
2022-09-07T05:17:54.976Z,6.20
2022-09-07T05:20:23.503Z,6.20
2022-09-07T05:22:59.530Z,6.30
2022-09-07T05:25:29.237Z,6.40
2022-09-07T05:27:59.181Z,6.40
2022-09-07T05:33:16.070Z,6.50
2022-09-07T05:35:44.526Z,6.60
2022-09-07T05:38:12.849Z,6.70
2022-09-07T05:40:41.197Z,6.80
2022-09-07T05:43:11.140Z,7.00
2022-09-07T05:45:39.510Z,7.00
2022-09-07T05:48:07.812Z,7.20
2022-09-07T05:50:36.558Z,7.30
2022-09-07T05:53:05.232Z,7.40
2022-09-07T05:55:33.597Z,7.50
2022-09-07T05:58:01.872Z,7.60
2022-09-07T06:00:31.761Z,7.70
2022-09-07T06:03:00.224Z,7.80
2022-09-07T06:05:28.779Z,7.90
2022-09-07T06:07:57.235Z,8.00
2022-09-07T06:13:14.242Z,8.20
2022-09-07T06:15:44.205Z,8.40
2022-09-07T06:18:12.606Z,8.50
2022-09-07T06:20:41.010Z,8.60
2022-09-07T06:23:09.398Z,8.80
2022-09-07T06:25:37.796Z,8.90
2022-09-07T06:28:06.273Z,9.00
2022-09-07T06:30:34.583Z,9.20
2022-09-07T06:33:04.548Z,9.50
2022-09-07T06:35:32.882Z,9.70
2022-09-07T06:38:01.217Z,9.90
2022-09-07T06:40:29.490Z,10.10
2022-09-07T06:42:58.223Z,10.20
2022-09-07T06:45:26.777Z,10.40
2022-09-07T06:47:55.668Z,10.50
2022-09-07T06:50:27.824Z,10.60
2022-09-07T06:55:45.433Z,10.90
2022-09-07T06:58:13.936Z,11.30
2022-09-07T07:00:42.428Z,11.40
2022-09-07T07:03:10.941Z,11.50
2022-09-07T07:05:40.908Z,11.60
2022-09-07T07:08:13.497Z,11.80
2022-09-07T07:10:42.173Z,12.00
2022-09-07T07:13:10.691Z,12.10
2022-09-07T07:15:39.258Z,12.30
2022-09-07T07:18:20.260Z,12.50
2022-09-07T07:20:51.251Z,12.70
2022-09-07T07:23:19.875Z,12.90
2022-09-07T07:25:48.337Z,13.00
2022-09-07T07:31:09.911Z,13.60
2022-09-07T07:33:40.811Z,13.90
2022-09-07T07:36:15.772Z,14.20
2022-09-07T07:39:02.494Z,14.30
2022-09-07T07:44:22.107Z,14.80
2022-09-07T07:46:51.136Z,15.00
2022-09-07T07:49:20.426Z,15.10
2022-09-07T07:54:39.072Z,15.30
2022-09-07T07:57:07.875Z,15.50
2022-09-07T07:59:36.536Z,15.60
2022-09-07T08:02:05.904Z,15.70
2022-09-07T08:04:34.727Z,15.80
2022-09-07T08:07:10.145Z,15.90
2022-09-07T08:09:39.740Z,16.00
2022-09-07T08:12:08.601Z,16.10
2022-09-07T08:14:40.963Z,16.20
2022-09-07T08:17:10.055Z,16.30
2022-09-07T08:19:38.402Z,16.40
2022-09-07T08:22:08.757Z,16.50
2022-09-07T08:24:37.263Z,16.60
2022-09-07T08:27:06.038Z,16.80
2022-09-07T08:29:35.484Z,16.90
2022-09-07T08:32:06.700Z,17.00
2022-09-07T08:34:38.249Z,17.10
2022-09-07T08:37:07.991Z,17.20
2022-09-07T08:39:37.051Z,17.20
2022-09-07T08:42:19.003Z,17.30
2022-09-07T08:44:50.143Z,17.40
2022-09-07T08:47:26.245Z,17.50
2022-09-07T08:50:01.244Z,17.60
2022-09-07T08:52:41.603Z,17.70
2022-09-07T08:55:15.996Z,17.70
2022-09-07T08:57:50.141Z,17.80
2022-09-07T09:00:20.256Z,17.90
2022-09-07T09:03:28.661Z,18.00
2022-09-07T09:05:50.154Z,18.20
2022-09-07T09:08:32.340Z,18.30
2022-09-07T09:11:07.389Z,18.30
2022-09-07T09:13:53.334Z,18.50
2022-09-07T09:16:28.474Z,18.70
2022-09-07T09:19:07.320Z,18.80
2022-09-07T09:21:36.267Z,18.90
2022-09-07T09:24:16.494Z,19.10
2022-09-07T09:26:47.691Z,19.20
2022-09-07T09:29:17.411Z,19.50
2022-09-07T09:31:45.786Z,19.80
2022-09-07T09:34:15.282Z,19.90
2022-09-07T09:36:48.071Z,20.30
2022-09-07T09:39:33.057Z,20.20
2022-09-07T09:42:15.454Z,20.30
2022-09-07T09:44:45.535Z,20.70
2022-09-07T09:47:30.727Z,21.10
2022-09-07T09:50:01.000Z,21.40
2022-09-07T09:52:41.921Z,21.70
2022-09-07T09:55:35.796Z,22.00
2022-09-07T10:06:22.679Z,22.20
2022-09-07T10:08:57.750Z,22.20
2022-09-07T10:14:25.321Z,22.10
2022-09-07T10:16:53.931Z,22.30
2022-09-07T10:19:30.962Z,22.30
2022-09-07T10:22:00.895Z,22.20
2022-09-07T10:24:32.843Z,22.30
2022-09-07T10:27:00.942Z,22.70
2022-09-07T10:29:36.127Z,23.00
2022-09-07T10:32:21.912Z,23.20
2022-09-07T10:35:05.262Z,23.00
2022-09-07T10:37:44.841Z,23.00
2022-09-07T10:40:23.116Z,23.30
2022-09-07T10:46:56.229Z,23.90
2022-09-07T10:49:24.779Z,23.90
2022-09-07T10:52:03.546Z,24.40
2022-09-07T10:54:41.110Z,24.00
2022-09-07T10:57:30.808Z,23.80
2022-09-07T11:00:09.743Z,23.70
2022-09-07T11:05:57.208Z,23.40
2022-09-07T11:09:15.726Z,23.50
2022-09-07T11:14:20.115Z,24.10
2022-09-07T11:16:54.569Z,24.40
2022-09-07T11:19:37.896Z,24.80
2022-09-07T11:22:20.977Z,24.90
2022-09-07T11:27:48.099Z,24.80
2022-09-07T11:30:23.697Z,25.00
2022-09-07T11:33:04.645Z,24.20
2022-09-07T11:35:44.515Z,23.60
2022-09-07T11:38:20.539Z,24.10
2022-09-07T11:41:07.353Z,24.10
2022-09-07T11:43:38.872Z,24.50
2022-09-07T11:46:12.061Z,24.80
2022-09-07T11:48:44.928Z,25.10
2022-09-07T11:51:20.804Z,25.00
2022-09-07T11:53:52.761Z,25.30
2022-09-07T11:56:27.068Z,25.30
2022-09-07T11:59:32.512Z,25.00
2022-09-07T12:02:55.288Z,25.00
2022-09-07T12:05:31.539Z,25.20
2022-09-07T12:08:12.348Z,25.10
2022-09-07T12:11:09.274Z,24.30
2022-09-07T12:14:06.435Z,24.10
2022-09-07T12:16:54.224Z,24.00
2022-09-07T12:19:24.655Z,24.00
2022-09-07T12:21:57.706Z,24.50
2022-09-07T12:24:44.541Z,24.60
2022-09-07T12:27:40.149Z,24.90
2022-09-07T12:30:51.955Z,24.80
2022-09-07T12:33:25.268Z,25.00
2022-09-07T12:35:55.087Z,25.20
2022-09-07T12:39:00.458Z,25.30
2022-09-07T12:41:47.852Z,25.00
2022-09-07T12:44:23.195Z,24.50
2022-09-07T12:47:00.202Z,24.00
2022-09-07T12:50:00.361Z,24.20
2022-09-07T12:52:48.524Z,24.00
2022-09-07T12:59:00.858Z,24.50
2022-09-07T13:01:37.736Z,24.60
2022-09-07T13:04:29.840Z,24.30
2022-09-07T13:07:16.890Z,23.90
2022-09-07T13:09:57.467Z,24.20
2022-09-07T13:15:53.125Z,24.10
2022-09-07T13:18:43.060Z,24.50
2022-09-07T13:21:37.230Z,24.80
2022-09-07T13:24:47.191Z,24.40
2022-09-07T13:27:39.629Z,24.00
2022-09-07T13:30:24.822Z,24.30
2022-09-07T13:33:32.766Z,24.50
2022-09-07T13:36:03.241Z,24.60
2022-09-07T13:38:33.525Z,24.50
2022-09-07T13:41:07.401Z,24.00
2022-09-07T13:43:37.083Z,24.00
2022-09-07T13:46:16.108Z,24.20
2022-09-07T13:48:51.664Z,24.30
2022-09-07T13:51:25.160Z,24.20
2022-09-07T13:54:04.509Z,24.10
2022-09-07T13:56:41.378Z,24.20
2022-09-07T13:59:20.604Z,23.80
2022-09-07T14:01:50.410Z,23.60
2022-09-07T14:04:26.944Z,23.70
2022-09-07T14:07:03.539Z,23.30
2022-09-07T14:09:31.934Z,23.20
2022-09-07T14:12:00.663Z,22.90
2022-09-07T14:14:30.971Z,22.70
2022-09-07T14:17:13.679Z,22.80
2022-09-07T14:19:45.253Z,23.10
2022-09-07T14:22:16.893Z,23.30
2022-09-07T14:24:49.640Z,23.60
2022-09-07T14:27:23.097Z,23.50
2022-09-07T14:29:51.871Z,23.10
2022-09-07T14:32:23.383Z,22.90
2022-09-07T14:34:53.320Z,22.60
2022-09-07T14:37:23.255Z,22.30
2022-09-07T14:39:59.495Z,22.10
2022-09-07T14:42:28.722Z,22.00
2022-09-07T14:45:21.800Z,21.80
2022-09-07T14:47:52.815Z,21.70
2022-09-07T14:50:24.959Z,21.60
2022-09-07T14:55:47.103Z,21.00
2022-09-07T14:58:25.469Z,21.00
2022-09-07T15:03:59.073Z,20.90
2022-09-07T15:09:30.759Z,20.70
2022-09-07T15:12:17.948Z,20.60
2022-09-07T15:14:47.589Z,20.40
2022-09-07T15:20:32.339Z,20.40
2022-09-07T15:23:02.185Z,20.40
2022-09-07T15:25:30.587Z,20.30
2022-09-07T15:27:58.913Z,20.30
2022-09-07T15:30:27.552Z,20.20
2022-09-07T15:32:57.301Z,20.20
2022-09-07T15:35:25.912Z,20.10
2022-09-07T15:38:02.795Z,20.00
2022-09-07T15:40:56.186Z,20.00
2022-09-07T15:43:29.372Z,19.90
2022-09-07T15:45:57.638Z,19.90
2022-09-07T15:48:26.534Z,19.80
2022-09-07T15:51:02.621Z,19.70
2022-09-07T15:56:20.527Z,19.50
2022-09-07T15:58:52.874Z,19.40
2022-09-07T16:04:14.734Z,19.20
2022-09-07T16:06:43.399Z,19.00
2022-09-07T16:09:11.491Z,18.90
2022-09-07T16:11:40.967Z,18.80
2022-09-07T16:14:11.735Z,18.60
2022-09-07T16:19:28.435Z,18.40
2022-09-07T16:21:57.473Z,18.30
2022-09-07T16:24:27.845Z,18.20
2022-09-07T16:26:57.377Z,18.00
2022-09-07T16:29:25.680Z,17.90
2022-09-07T16:34:41.912Z,17.70
2022-09-07T16:37:10.077Z,17.60
2022-09-07T16:39:38.286Z,17.50
2022-09-07T16:42:08.971Z,17.40
2022-09-07T16:44:37.107Z,17.30
2022-09-07T16:47:05.344Z,17.10
2022-09-07T16:49:33.654Z,17.00
2022-09-07T16:52:01.801Z,17.00
2022-09-07T16:54:29.865Z,16.90
2022-09-07T16:56:58.051Z,16.80
2022-09-07T16:59:27.591Z,16.70
2022-09-07T17:01:56.545Z,16.50
2022-09-07T17:04:24.996Z,16.50
2022-09-07T17:06:54.440Z,16.40
2022-09-07T17:09:26.568Z,16.30
2022-09-07T17:11:55.193Z,16.20
2022-09-07T17:14:23.632Z,16.10
2022-09-07T17:16:53.290Z,16.00
2022-09-07T17:19:30.066Z,15.90
2022-09-07T17:21:59.747Z,15.80
2022-09-07T17:24:27.972Z,15.70
2022-09-07T17:26:56.704Z,15.60
2022-09-07T17:29:25.103Z,15.50
2022-09-07T17:34:42.683Z,15.30
2022-09-07T17:37:38.926Z,15.20
2022-09-07T17:40:13.128Z,15.20
2022-09-07T17:45:29.859Z,15.00
2022-09-07T17:47:59.605Z,14.90
2022-09-07T17:50:27.802Z,14.70
2022-09-07T17:52:56.031Z,14.50
2022-09-07T17:55:25.525Z,14.40
2022-09-07T17:57:53.753Z,14.30
2022-09-07T18:00:22.051Z,14.30
2022-09-07T18:02:51.147Z,14.20
2022-09-07T18:05:20.706Z,14.10
2022-09-07T18:07:48.955Z,14.00
2022-09-07T18:10:17.574Z,13.80
2022-09-07T18:12:45.777Z,13.70
2022-09-07T18:15:13.975Z,13.60
2022-09-07T18:17:42.211Z,13.60
2022-09-07T18:20:10.829Z,13.50
2022-09-07T18:22:40.276Z,13.50
2022-09-07T18:25:10.377Z,13.40
2022-09-07T18:27:40.440Z,13.40
2022-09-07T18:30:10.757Z,13.30
2022-09-07T18:32:39.079Z,13.30
2022-09-07T18:35:08.172Z,13.20
2022-09-07T18:37:36.340Z,13.20
2022-09-07T18:40:08.332Z,13.10
2022-09-07T18:42:36.429Z,13.10
2022-09-07T18:47:54.691Z,13.00
2022-09-07T18:50:23.313Z,12.90
2022-09-07T18:52:52.376Z,12.80
2022-09-07T18:55:24.031Z,12.80
2022-09-07T18:57:52.198Z,12.70
2022-09-07T19:00:20.572Z,12.60
2022-09-07T19:02:53.667Z,12.60
2022-09-07T19:08:10.279Z,12.50
2022-09-07T19:10:39.821Z,12.50
2022-09-07T19:13:08.018Z,12.50
2022-09-07T19:15:37.670Z,12.50
2022-09-07T19:18:07.743Z,12.40
2022-09-07T19:20:36.114Z,12.40
2022-09-07T19:23:05.011Z,12.40
2022-09-07T19:25:33.208Z,12.40
2022-09-07T19:28:02.863Z,12.50
2022-09-07T19:30:35.570Z,12.50
2022-09-07T19:33:04.853Z,12.50
2022-09-07T19:35:36.730Z,12.50
2022-09-07T19:38:05.139Z,12.50
2022-09-07T19:40:33.240Z,12.50
2022-09-07T19:43:02.723Z,12.50
2022-09-07T19:45:32.592Z,12.50
2022-09-07T19:48:00.746Z,12.60
2022-09-07T19:50:28.890Z,12.70
2022-09-07T19:52:57.123Z,12.70
2022-09-07T19:55:25.210Z,12.70
2022-09-07T19:57:53.383Z,12.60
2022-09-07T20:00:24.760Z,12.60
2022-09-07T20:02:54.136Z,12.50
2022-09-07T20:05:23.757Z,12.40
2022-09-07T20:07:51.923Z,12.30
2022-09-07T20:10:20.524Z,12.30
2022-09-07T20:12:48.718Z,12.30
2022-09-07T20:15:16.988Z,12.30
2022-09-07T20:17:47.499Z,12.30
2022-09-07T20:20:15.944Z,12.30
2022-09-07T20:22:44.173Z,12.30
2022-09-07T20:25:13.392Z,12.30
2022-09-07T20:27:41.769Z,12.20
2022-09-07T20:30:11.172Z,12.20
2022-09-07T20:32:41.511Z,12.20
2022-09-07T20:35:11.448Z,12.20
2022-09-07T20:37:39.651Z,12.30
2022-09-07T20:40:09.041Z,12.30
2022-09-07T20:42:37.549Z,12.20
2022-09-07T20:45:06.647Z,12.20
2022-09-07T20:47:34.934Z,12.20
2022-09-07T20:50:03.040Z,12.20
2022-09-07T20:52:32.579Z,12.10
2022-09-07T20:55:00.697Z,12.10
2022-09-07T20:57:28.780Z,12.00
2022-09-07T20:59:56.896Z,11.90
2022-09-07T21:02:25.271Z,11.90
2022-09-07T21:04:53.539Z,11.80
2022-09-07T21:07:21.676Z,11.80
2022-09-07T21:09:51.410Z,11.80
2022-09-07T21:12:19.782Z,11.70
2022-09-07T21:14:48.415Z,11.70
2022-09-07T21:17:16.655Z,11.60
2022-09-07T21:19:44.791Z,11.60
2022-09-07T21:22:12.925Z,11.60
2022-09-07T21:24:41.157Z,11.50
2022-09-07T21:27:10.748Z,11.50
2022-09-07T21:29:38.943Z,11.50
2022-09-07T21:32:07.110Z,11.50
2022-09-07T21:34:35.316Z,11.30
2022-09-07T21:37:03.399Z,11.10
2022-09-07T21:39:31.670Z,11.10
2022-09-07T21:41:59.812Z,11.10
2022-09-07T21:44:29.285Z,11.00
2022-09-07T21:46:57.485Z,11.00
2022-09-07T21:49:25.722Z,11.00
2022-09-07T21:51:53.907Z,10.90
2022-09-07T21:54:22.041Z,10.70
2022-09-07T21:56:50.387Z,10.60
2022-09-07T21:59:18.466Z,10.60
2022-09-07T22:01:48.704Z,10.60
2022-09-07T22:04:16.879Z,10.60
2022-09-07T22:06:45.007Z,10.50
2022-09-07T22:09:13.147Z,10.40
2022-09-07T22:11:45.738Z,10.30
2022-09-07T22:14:15.707Z,10.40
2022-09-07T22:16:43.866Z,10.40
2022-09-07T22:19:13.330Z,10.40
2022-09-07T22:21:41.528Z,10.40
2022-09-07T22:24:11.972Z,10.40
2022-09-07T22:26:40.155Z,10.40
2022-09-07T22:29:09.769Z,10.30
2022-09-07T22:31:38.965Z,10.30
2022-09-07T22:34:09.294Z,10.20
2022-09-07T22:36:40.954Z,10.20
2022-09-07T22:39:13.024Z,10.20
2022-09-07T22:41:42.712Z,10.20
2022-09-07T22:44:13.340Z,10.30
2022-09-07T22:46:43.574Z,10.30
2022-09-07T22:49:12.785Z,10.30
2022-09-07T22:51:42.330Z,10.30
2022-09-07T22:54:10.763Z,10.30
2022-09-07T22:56:39.404Z,10.30
2022-09-07T22:59:09.414Z,10.20
2022-09-07T23:01:38.466Z,10.10
2022-09-07T23:04:07.324Z,10.00
2022-09-07T23:06:37.118Z,10.00
2022-09-07T23:09:08.442Z,9.90
2022-09-07T23:11:36.945Z,9.90
2022-09-07T23:14:07.806Z,9.90
2022-09-07T23:16:36.214Z,9.80
2022-09-07T23:19:04.772Z,9.80
2022-09-07T23:21:32.904Z,9.80
2022-09-07T23:24:02.047Z,9.70
2022-09-07T23:26:32.989Z,9.60
2022-09-07T23:29:02.636Z,9.50
2022-09-07T23:31:32.785Z,9.40
2022-09-07T23:34:01.645Z,9.20
2022-09-07T23:36:30.269Z,9.20
2022-09-07T23:38:59.506Z,9.40
2022-09-07T23:41:28.741Z,9.40
2022-09-07T23:43:58.258Z,9.40
2022-09-07T23:46:26.510Z,9.50
2022-09-07T23:48:54.691Z,9.50
2022-09-07T23:51:24.435Z,9.40
2022-09-07T23:53:53.391Z,9.40
2022-09-07T23:56:22.137Z,9.30
2022-09-07T23:58:50.306Z,9.30
